createdAt,value
2023-02-09T00:00:08.605Z,21.70
2023-02-09T00:02:35.299Z,22.08
2023-02-09T00:05:01.921Z,23.48
2023-02-09T00:07:28.524Z,23.42
2023-02-09T00:09:55.191Z,23.20
2023-02-09T00:12:40.258Z,22.90
2023-02-09T00:15:07.360Z,20.95
2023-02-09T00:17:35.790Z,23.15
2023-02-09T00:20:05.944Z,22.23
2023-02-09T00:22:32.621Z,22.08
2023-02-09T00:24:59.319Z,22.08
2023-02-09T00:27:25.964Z,21.40
2023-02-09T00:29:52.842Z,19.75
2023-02-09T00:32:19.485Z,22.27
2023-02-09T00:34:46.135Z,20.52
2023-02-09T00:37:13.016Z,19.02
2023-02-09T00:39:39.652Z,20.67
2023-02-09T00:42:06.289Z,20.40
2023-02-09T00:44:37.242Z,20.05
2023-02-09T00:47:04.130Z,18.60
2023-02-09T00:49:30.798Z,19.42
2023-02-09T00:51:57.419Z,19.50
2023-02-09T00:54:24.080Z,20.35
2023-02-09T00:56:50.733Z,19.08
2023-02-09T00:59:17.395Z,20.08
2023-02-09T01:01:44.079Z,19.08
2023-02-09T01:04:10.728Z,18.40
2023-02-09T01:06:37.404Z,19.55
2023-02-09T01:09:04.411Z,18.00
2023-02-09T01:11:31.144Z,18.20
2023-02-09T01:13:58.484Z,18.98
2023-02-09T01:16:28.772Z,18.58
2023-02-09T01:18:56.035Z,18.42
2023-02-09T01:21:22.812Z,20.23
2023-02-09T01:23:49.752Z,20.88
2023-02-09T01:26:16.547Z,20.77
2023-02-09T01:28:43.319Z,20.77
2023-02-09T01:31:30.441Z,22.25
2023-02-09T01:33:58.054Z,18.60
2023-02-09T01:36:24.686Z,19.70
2023-02-09T01:38:51.359Z,19.85
2023-02-09T01:41:18.225Z,18.42
2023-02-09T01:43:52.766Z,18.67
2023-02-09T01:46:19.723Z,17.83
2023-02-09T01:48:46.595Z,17.00
2023-02-09T01:51:13.240Z,18.23
2023-02-09T01:53:39.926Z,16.38
2023-02-09T01:56:08.318Z,16.80
2023-02-09T01:58:35.162Z,15.95
2023-02-09T02:01:01.812Z,15.52
2023-02-09T02:03:28.504Z,16.98
2023-02-09T02:06:02.228Z,16.38
2023-02-09T02:08:56.509Z,17.38
2023-02-09T02:11:23.693Z,15.20
2023-02-09T02:13:50.318Z,17.42
2023-02-09T02:16:26.714Z,15.98
2023-02-09T02:19:08.911Z,16.23
2023-02-09T02:21:44.681Z,15.40
2023-02-09T02:24:32.506Z,15.23
2023-02-09T02:27:00.968Z,14.32
2023-02-09T02:30:03.824Z,15.43
2023-02-09T02:33:00.125Z,14.80
2023-02-09T02:35:41.792Z,15.80
2023-02-09T02:38:18.859Z,15.02
2023-02-09T02:41:03.929Z,15.48
2023-02-09T02:43:42.413Z,15.63
2023-02-09T02:46:44.837Z,15.75
2023-02-09T02:49:34.548Z,14.27
2023-02-09T02:52:03.844Z,15.80
2023-02-09T02:54:37.693Z,16.10
2023-02-09T02:59:35.078Z,14.38
2023-02-09T03:02:17.444Z,14.98
2023-02-09T03:04:44.079Z,16.73
2023-02-09T03:07:10.768Z,14.68
2023-02-09T03:09:37.411Z,15.48
2023-02-09T03:12:15.647Z,17.20
2023-02-09T03:15:14.624Z,15.55
2023-02-09T03:18:01.598Z,15.63
2023-02-09T03:20:42.823Z,14.88
2023-02-09T03:23:14.599Z,15.63
2023-02-09T03:25:43.743Z,14.52
2023-02-09T03:28:36.887Z,14.48
2023-02-09T03:31:03.925Z,15.40
2023-02-09T03:33:32.177Z,14.98
2023-02-09T03:36:00.598Z,15.68
2023-02-09T03:38:27.383Z,15.30
2023-02-09T03:40:54.455Z,15.18
2023-02-09T03:43:21.135Z,15.52
2023-02-09T03:45:47.822Z,15.57
2023-02-09T03:48:14.441Z,16.88
2023-02-09T03:50:41.338Z,15.57
2023-02-09T03:53:07.966Z,14.15
2023-02-09T03:55:34.624Z,16.52
2023-02-09T03:58:01.263Z,15.10
2023-02-09T04:00:27.976Z,15.32
2023-02-09T04:02:54.784Z,14.52
2023-02-09T04:05:23.084Z,15.02
2023-02-09T04:07:50.127Z,14.38
2023-02-09T04:10:17.011Z,13.95
2023-02-09T04:12:43.879Z,16.00
2023-02-09T04:15:10.642Z,14.20
2023-02-09T04:17:37.305Z,14.75
2023-02-09T04:20:04.346Z,13.85
2023-02-09T04:22:31.066Z,14.35
2023-02-09T04:24:57.714Z,14.05
2023-02-09T04:27:24.377Z,13.80
2023-02-09T04:29:51.012Z,14.68
2023-02-09T04:32:17.668Z,13.90
2023-02-09T04:34:44.301Z,14.07
2023-02-09T04:37:10.928Z,13.75
2023-02-09T04:39:37.823Z,14.40
2023-02-09T04:42:04.513Z,14.98
2023-02-09T04:44:31.135Z,13.50
2023-02-09T04:46:57.755Z,15.38
2023-02-09T04:49:24.356Z,14.95
2023-02-09T04:51:50.994Z,14.68
2023-02-09T04:54:17.604Z,15.68
2023-02-09T04:56:44.233Z,14.73
2023-02-09T04:59:29.229Z,14.57
2023-02-09T05:01:55.848Z,13.13
2023-02-09T05:04:22.443Z,14.05
2023-02-09T05:06:49.132Z,13.52
2023-02-09T05:09:15.763Z,14.48
2023-02-09T05:11:42.377Z,14.18
2023-02-09T05:14:09.009Z,13.93
2023-02-09T05:16:37.589Z,13.77
2023-02-09T05:19:05.760Z,13.73
2023-02-09T05:21:35.632Z,14.18
2023-02-09T05:24:02.414Z,14.82
2023-02-09T05:26:29.201Z,13.68
2023-02-09T05:28:55.840Z,14.57
2023-02-09T05:31:22.631Z,14.02
2023-02-09T05:33:49.318Z,15.25
2023-02-09T05:36:15.963Z,15.02
2023-02-09T05:38:42.596Z,14.05
2023-02-09T05:41:10.730Z,14.50
2023-02-09T05:43:37.378Z,13.60
2023-02-09T05:46:07.012Z,14.35
2023-02-09T05:48:34.816Z,14.70
2023-02-09T05:51:01.556Z,13.68
2023-02-09T05:53:28.181Z,14.88
2023-02-09T05:55:55.080Z,13.48
2023-02-09T05:58:21.728Z,14.02
2023-02-09T06:00:48.357Z,14.40
2023-02-09T06:03:15.017Z,13.45
2023-02-09T06:05:44.801Z,13.18
2023-02-09T06:08:11.416Z,14.90
2023-02-09T06:10:38.068Z,13.40
2023-02-09T06:13:04.695Z,14.05
2023-02-09T06:15:31.603Z,14.60
2023-02-09T06:17:58.469Z,14.15
2023-02-09T06:20:25.140Z,14.70
2023-02-09T06:22:52.027Z,14.30
2023-02-09T06:25:18.708Z,14.43
2023-02-09T06:27:45.504Z,16.70
2023-02-09T06:30:12.608Z,14.70
2023-02-09T06:32:40.439Z,14.75
2023-02-09T06:35:07.133Z,15.35
2023-02-09T06:37:34.060Z,14.88
2023-02-09T06:40:00.663Z,13.57
2023-02-09T06:42:44.113Z,13.38
2023-02-09T06:45:12.704Z,14.38
2023-02-09T06:47:43.521Z,15.77
2023-02-09T06:50:11.355Z,15.35
2023-02-09T06:52:38.188Z,14.38
2023-02-09T06:55:05.451Z,15.20
2023-02-09T06:57:32.233Z,15.65
2023-02-09T06:59:59.108Z,15.65
2023-02-09T07:02:26.039Z,15.95
2023-02-09T07:04:52.945Z,14.85
2023-02-09T07:07:19.828Z,15.23
2023-02-09T07:09:46.457Z,16.15
2023-02-09T07:12:13.088Z,15.63
2023-02-09T07:14:39.704Z,16.90
2023-02-09T07:17:06.482Z,16.08
2023-02-09T07:19:33.121Z,15.23
2023-02-09T07:21:59.753Z,15.15
2023-02-09T07:24:26.623Z,15.65
2023-02-09T07:26:53.642Z,16.25
2023-02-09T07:29:20.279Z,16.88
2023-02-09T07:31:47.018Z,15.68
2023-02-09T07:34:13.744Z,16.23
2023-02-09T07:36:40.383Z,15.82
2023-02-09T07:39:07.227Z,15.82
2023-02-09T07:41:33.939Z,15.95
2023-02-09T07:44:00.566Z,16.67
2023-02-09T07:46:27.273Z,16.42
2023-02-09T07:48:53.961Z,16.85
2023-02-09T07:51:25.351Z,16.38
2023-02-09T07:53:56.079Z,16.52
2023-02-09T07:56:23.265Z,14.15
2023-02-09T07:58:50.007Z,14.32
2023-02-09T08:01:17.129Z,14.35
2023-02-09T08:03:45.569Z,14.90
2023-02-09T08:06:30.338Z,14.98
2023-02-09T08:09:03.225Z,13.50
2023-02-09T08:11:34.203Z,13.65
2023-02-09T08:14:03.245Z,14.00
2023-02-09T08:16:30.596Z,14.75
2023-02-09T08:19:06.071Z,12.93
2023-02-09T08:21:35.044Z,13.90
2023-02-09T08:24:01.720Z,13.32
2023-02-09T08:26:28.354Z,13.07
2023-02-09T08:28:55.078Z,14.52
2023-02-09T08:31:22.238Z,14.30
2023-02-09T08:33:49.839Z,14.10
2023-02-09T08:36:17.345Z,14.13
2023-02-09T08:38:44.629Z,13.43
2023-02-09T08:41:12.892Z,14.70
2023-02-09T08:43:39.570Z,13.85
2023-02-09T08:46:10.901Z,13.88
2023-02-09T08:48:39.852Z,14.30
2023-02-09T08:51:06.998Z,13.60
2023-02-09T08:53:33.667Z,13.88
2023-02-09T08:56:00.338Z,14.07
2023-02-09T08:58:27.068Z,13.38
2023-02-09T09:00:57.073Z,13.93
2023-02-09T09:03:29.797Z,13.73
2023-02-09T09:06:06.624Z,14.38
2023-02-09T09:08:34.141Z,13.73
2023-02-09T09:11:00.758Z,14.45
2023-02-09T09:13:28.095Z,13.93
2023-02-09T09:15:57.843Z,12.85
2023-02-09T09:18:25.258Z,13.98
2023-02-09T09:20:52.273Z,12.57
2023-02-09T09:23:18.984Z,12.40
2023-02-09T09:25:45.981Z,12.00
2023-02-09T09:28:12.839Z,12.85
2023-02-09T09:30:39.486Z,12.00
2023-02-09T09:33:06.203Z,12.20
2023-02-09T09:35:33.280Z,12.23
2023-02-09T09:38:00.843Z,11.82
2023-02-09T09:40:29.366Z,12.43
2023-02-09T09:42:57.527Z,14.57
2023-02-09T09:45:25.732Z,12.77
2023-02-09T09:47:52.716Z,12.25
2023-02-09T09:50:36.856Z,12.88
2023-02-09T09:53:07.180Z,13.18
2023-02-09T09:55:33.844Z,12.80
2023-02-09T09:58:03.112Z,12.80
2023-02-09T10:00:38.303Z,13.70
2023-02-09T10:03:11.833Z,12.63
2023-02-09T10:05:39.080Z,12.63
2023-02-09T10:08:10.603Z,13.38
2023-02-09T10:10:58.366Z,13.80
2023-02-09T10:13:48.133Z,13.73
2023-02-09T10:16:20.600Z,13.07
2023-02-09T10:18:51.677Z,13.93
2023-02-09T10:21:18.717Z,13.13
2023-02-09T10:23:47.830Z,14.48
2023-02-09T10:26:26.153Z,12.57
2023-02-09T10:28:54.768Z,12.68
2023-02-09T10:31:43.555Z,13.27
2023-02-09T10:34:15.770Z,13.13
2023-02-09T10:37:17.587Z,13.30
2023-02-09T10:39:44.504Z,14.52
2023-02-09T10:42:35.559Z,13.88
2023-02-09T10:45:14.178Z,14.38
2023-02-09T10:47:40.818Z,13.77
2023-02-09T10:50:17.552Z,14.23
2023-02-09T10:53:01.207Z,13.85
2023-02-09T10:55:39.063Z,13.35
2023-02-09T10:58:08.733Z,13.38
2023-02-09T11:00:45.842Z,13.45
2023-02-09T11:03:17.652Z,14.20
2023-02-09T11:05:45.506Z,14.10
2023-02-09T11:08:22.392Z,14.00
2023-02-09T11:11:05.102Z,13.60
2023-02-09T11:13:32.566Z,13.07
2023-02-09T11:16:01.901Z,12.60
2023-02-09T11:18:30.214Z,14.30
2023-02-09T11:21:14.153Z,14.15
2023-02-09T11:23:52.451Z,14.82
2023-02-09T11:26:30.937Z,14.05
2023-02-09T11:29:09.315Z,12.63
2023-02-09T11:31:39.770Z,13.52
2023-02-09T11:34:53.765Z,14.20
2023-02-09T11:37:44.416Z,13.50
2023-02-09T11:40:17.361Z,14.50
2023-02-09T11:42:49.305Z,14.38
2023-02-09T11:45:35.321Z,14.35
2023-02-09T11:48:09.156Z,15.38
2023-02-09T11:50:56.566Z,14.77
2023-02-09T11:53:41.953Z,15.02
2023-02-09T11:56:10.072Z,15.00
2023-02-09T11:58:40.563Z,15.20
2023-02-09T12:01:22.308Z,14.85
2023-02-09T12:04:09.215Z,14.30
2023-02-09T12:06:38.767Z,16.23
2023-02-09T12:09:17.068Z,16.25
2023-02-09T12:11:49.374Z,14.70
2023-02-09T12:14:23.225Z,13.93
2023-02-09T12:17:40.621Z,13.35
2023-02-09T12:20:42.769Z,14.68
2023-02-09T12:23:26.300Z,14.50
2023-02-09T12:26:00.558Z,15.32
2023-02-09T12:28:27.213Z,15.35
2023-02-09T12:30:53.852Z,16.13
2023-02-09T12:33:23.424Z,14.80
2023-02-09T12:36:10.286Z,14.40
2023-02-09T12:38:56.179Z,14.95
2023-02-09T12:41:40.036Z,14.60
2023-02-09T12:44:10.600Z,14.00
2023-02-09T12:46:52.839Z,15.20
2023-02-09T12:49:21.447Z,14.82
2023-02-09T12:51:54.297Z,14.80
2023-02-09T12:54:42.919Z,15.45
2023-02-09T12:57:15.771Z,14.75
2023-02-09T12:59:52.521Z,15.95
2023-02-09T13:02:44.732Z,15.02
2023-02-09T13:05:18.257Z,14.15
2023-02-09T13:07:50.033Z,15.18
2023-02-09T13:10:43.611Z,15.60
2023-02-09T13:13:13.190Z,14.57
2023-02-09T13:16:03.715Z,14.70
2023-02-09T13:18:48.478Z,14.93
2023-02-09T13:21:28.026Z,14.73
2023-02-09T13:24:07.476Z,14.82
2023-02-09T13:26:47.236Z,14.60
2023-02-09T13:29:21.276Z,14.75
2023-02-09T13:32:15.626Z,14.73
2023-02-09T13:35:01.392Z,15.80
2023-02-09T13:37:39.962Z,15.68
2023-02-09T13:40:15.409Z,14.18
2023-02-09T13:43:12.295Z,15.73
2023-02-09T13:45:49.597Z,15.23
2023-02-09T13:48:24.822Z,16.33
2023-02-09T13:50:52.375Z,15.35
2023-02-09T13:53:19.936Z,15.15
2023-02-09T13:55:47.694Z,15.88
2023-02-09T13:58:32.206Z,16.17
2023-02-09T14:01:02.647Z,15.95
2023-02-09T14:03:36.201Z,16.00
2023-02-09T14:06:18.013Z,16.02
2023-02-09T14:08:44.741Z,16.05
2023-02-09T14:11:21.869Z,15.65
2023-02-09T14:13:51.349Z,15.48
2023-02-09T14:16:18.701Z,15.57
2023-02-09T14:18:49.141Z,15.80
2023-02-09T14:21:37.670Z,15.00
2023-02-09T14:24:25.405Z,17.60
2023-02-09T14:27:05.020Z,16.80
2023-02-09T14:29:33.095Z,16.42
2023-02-09T14:32:32.938Z,16.23
2023-02-09T14:35:29.524Z,17.33
2023-02-09T14:37:57.721Z,16.95
2023-02-09T14:40:27.633Z,16.60
2023-02-09T14:43:02.693Z,16.83
2023-02-09T14:45:37.682Z,15.05
2023-02-09T14:48:23.457Z,15.32
2023-02-09T14:50:51.104Z,15.57
2023-02-09T14:53:17.759Z,15.38
2023-02-09T14:55:45.156Z,16.75
2023-02-09T14:58:26.493Z,16.70
2023-02-09T15:00:54.352Z,15.88
2023-02-09T15:03:21.127Z,15.68
2023-02-09T15:05:48.724Z,16.75
2023-02-09T15:08:17.487Z,16.50
2023-02-09T15:10:45.609Z,15.57
2023-02-09T15:13:13.039Z,15.73
2023-02-09T15:15:39.838Z,16.17
2023-02-09T15:18:06.663Z,15.38
2023-02-09T15:20:33.529Z,16.42
2023-02-09T15:23:00.809Z,16.58
2023-02-09T15:25:27.829Z,16.65
2023-02-09T15:27:59.025Z,16.38
2023-02-09T15:30:34.867Z,16.40
2023-02-09T15:33:01.825Z,16.70
2023-02-09T15:35:28.795Z,17.02
2023-02-09T15:37:57.487Z,14.95
2023-02-09T15:40:52.256Z,16.20
2023-02-09T15:46:23.821Z,16.17
2023-02-09T15:48:50.528Z,15.80
2023-02-09T15:51:17.230Z,17.02
2023-02-09T15:53:43.877Z,17.02
2023-02-09T15:56:10.705Z,17.52
2023-02-09T15:58:39.559Z,16.95
2023-02-09T16:01:06.601Z,18.10
2023-02-09T16:03:33.347Z,16.13
2023-02-09T16:06:02.109Z,17.02
2023-02-09T16:08:33.097Z,17.05
2023-02-09T16:11:00.500Z,17.33
2023-02-09T16:13:27.127Z,17.02
2023-02-09T16:15:54.670Z,16.00
2023-02-09T16:18:23.532Z,16.13
2023-02-09T16:20:50.608Z,17.83
2023-02-09T16:23:21.168Z,17.85
2023-02-09T16:25:51.793Z,16.67
2023-02-09T16:28:18.879Z,17.77
2023-02-09T16:30:53.722Z,16.58
2023-02-09T16:33:20.920Z,17.27
2023-02-09T16:35:57.599Z,16.95
2023-02-09T16:38:24.579Z,17.15
2023-02-09T16:40:51.874Z,17.38
2023-02-09T16:43:18.728Z,17.85
2023-02-09T16:45:57.444Z,17.10
2023-02-09T16:48:29.364Z,18.42
2023-02-09T16:50:56.356Z,17.70
2023-02-09T16:53:35.268Z,16.73
2023-02-09T16:56:04.958Z,17.58
2023-02-09T16:58:31.653Z,17.05
2023-02-09T17:00:58.371Z,16.80
2023-02-09T17:03:42.585Z,16.42
2023-02-09T17:06:18.388Z,17.63
2023-02-09T17:08:45.424Z,18.67
2023-02-09T17:11:16.940Z,17.92
2023-02-09T17:13:44.141Z,17.98
2023-02-09T17:16:17.959Z,17.80
2023-02-09T17:18:44.705Z,17.38
2023-02-09T17:21:25.356Z,17.63
2023-02-09T17:23:52.212Z,17.63
2023-02-09T17:26:19.111Z,17.50
2023-02-09T17:28:46.031Z,18.48
2023-02-09T17:31:12.930Z,18.00
2023-02-09T17:33:39.556Z,18.63
2023-02-09T17:38:53.383Z,19.10
2023-02-09T17:41:21.484Z,18.70
2023-02-09T17:43:48.409Z,19.77
2023-02-09T17:46:17.182Z,20.83
2023-02-09T17:48:43.902Z,18.33
2023-02-09T17:51:21.317Z,19.65
2023-02-09T17:53:48.793Z,17.80
2023-02-09T17:56:16.794Z,17.60
2023-02-09T17:58:44.591Z,19.30
2023-02-09T18:01:27.272Z,18.85
2023-02-09T18:03:58.807Z,19.30
2023-02-09T18:06:38.849Z,18.55
2023-02-09T18:09:07.290Z,19.45
2023-02-09T18:11:52.208Z,19.17
2023-02-09T18:14:19.690Z,18.15
2023-02-09T18:16:47.761Z,20.13
2023-02-09T18:19:15.772Z,17.55
2023-02-09T18:21:51.163Z,20.20
2023-02-09T18:24:18.280Z,19.88
2023-02-09T18:26:46.830Z,19.75
2023-02-09T18:29:13.825Z,20.77
2023-02-09T18:31:40.645Z,21.15
2023-02-09T18:34:07.868Z,20.83
2023-02-09T18:36:34.548Z,19.83
2023-02-09T18:39:01.172Z,20.15
2023-02-09T18:41:27.855Z,18.95
2023-02-09T18:43:54.678Z,19.73
2023-02-09T18:46:26.937Z,19.42
2023-02-09T18:48:54.567Z,19.17
2023-02-09T18:51:21.467Z,20.05
2023-02-09T18:53:51.346Z,20.95
2023-02-09T18:56:21.774Z,19.45
2023-02-09T18:58:51.693Z,20.00
2023-02-09T19:01:24.455Z,19.45
2023-02-09T19:03:54.209Z,20.10
2023-02-09T19:06:21.496Z,20.45
2023-02-09T19:08:50.087Z,20.35
2023-02-09T19:11:17.748Z,20.23
2023-02-09T19:14:04.617Z,20.67
2023-02-09T19:16:31.261Z,20.63
2023-02-09T19:18:58.392Z,21.05
2023-02-09T19:21:25.322Z,22.13
2023-02-09T19:23:51.997Z,20.63
2023-02-09T19:26:18.681Z,19.88
2023-02-09T19:28:45.311Z,22.67
2023-02-09T19:31:16.226Z,22.95
2023-02-09T19:33:42.923Z,22.23
2023-02-09T19:36:09.935Z,20.80
2023-02-09T19:38:36.568Z,21.92
2023-02-09T19:41:11.759Z,22.60
2023-02-09T19:43:41.733Z,22.85
2023-02-09T19:46:09.885Z,22.30
2023-02-09T19:48:38.358Z,22.83
2023-02-09T19:51:05.103Z,21.33
2023-02-09T19:53:31.749Z,23.48
2023-02-09T19:55:58.379Z,22.58
2023-02-09T19:58:25.026Z,22.60
2023-02-09T20:00:51.931Z,22.05
2023-02-09T20:03:18.826Z,22.88
2023-02-09T20:05:46.025Z,22.70
2023-02-09T20:08:14.129Z,22.88
2023-02-09T20:10:40.793Z,21.88
2023-02-09T20:13:08.465Z,22.65
2023-02-09T20:15:35.110Z,23.02
2023-02-09T20:18:01.761Z,22.02
2023-02-09T20:20:28.673Z,21.65
2023-02-09T20:22:55.298Z,23.48
2023-02-09T20:25:22.063Z,23.27
2023-02-09T20:27:49.987Z,24.50
2023-02-09T20:30:16.802Z,23.90
2023-02-09T20:32:43.600Z,31.42
2023-02-09T20:35:10.712Z,30.38
2023-02-09T20:37:37.389Z,25.23
2023-02-09T20:40:04.339Z,25.65
2023-02-09T20:42:49.444Z,24.55
2023-02-09T20:45:35.293Z,26.02
2023-02-09T20:48:01.962Z,26.58
2023-02-09T20:50:28.622Z,26.25
2023-02-09T20:52:55.280Z,25.33
2023-02-09T20:55:22.635Z,24.23
2023-02-09T20:57:49.353Z,26.27
2023-02-09T21:00:16.261Z,25.95
2023-02-09T21:02:42.932Z,27.40
2023-02-09T21:05:09.584Z,27.00
2023-02-09T21:07:36.339Z,27.83
2023-02-09T21:10:03.282Z,27.27
2023-02-09T21:12:29.907Z,25.83
2023-02-09T21:14:56.549Z,29.30
2023-02-09T21:17:23.601Z,28.00
2023-02-09T21:19:50.257Z,27.73
2023-02-09T21:22:17.016Z,27.95
2023-02-09T21:24:44.060Z,27.92
2023-02-09T21:27:10.711Z,27.33
2023-02-09T21:29:37.654Z,27.95
2023-02-09T21:32:05.229Z,27.77
2023-02-09T21:34:31.934Z,26.38
2023-02-09T21:36:58.550Z,27.55
2023-02-09T21:39:25.157Z,28.05
2023-02-09T21:42:10.443Z,29.88
2023-02-09T21:44:37.412Z,28.20
2023-02-09T21:47:04.181Z,27.08
2023-02-09T21:49:31.862Z,29.58
2023-02-09T21:51:59.009Z,30.13
2023-02-09T21:54:27.470Z,30.00
2023-02-09T21:56:54.726Z,30.55
2023-02-09T21:59:21.344Z,30.27
2023-02-09T22:01:47.948Z,29.70
2023-02-09T22:04:14.670Z,28.30
2023-02-09T22:06:41.723Z,29.90
2023-02-09T22:09:08.440Z,29.50
2023-02-09T22:11:35.044Z,30.83
2023-02-09T22:14:01.700Z,28.42
2023-02-09T22:16:29.377Z,29.30
2023-02-09T22:18:56.250Z,31.58
2023-02-09T22:21:23.158Z,31.35
2023-02-09T22:23:51.036Z,30.40
2023-02-09T22:26:17.920Z,32.47
2023-02-09T22:28:44.862Z,31.77
2023-02-09T22:31:13.778Z,30.80
2023-02-09T22:33:40.704Z,30.05
2023-02-09T22:36:08.928Z,31.75
2023-02-09T22:38:35.811Z,29.73
2023-02-09T22:41:07.339Z,30.38
2023-02-09T22:43:34.516Z,29.10
2023-02-09T22:46:01.479Z,30.83
2023-02-09T22:48:28.152Z,31.40
2023-02-09T22:50:54.769Z,29.52
2023-02-09T22:53:21.407Z,29.95
2023-02-09T22:55:49.383Z,28.20
2023-02-09T22:58:16.175Z,31.30
2023-02-09T23:00:42.808Z,30.35
2023-02-09T23:03:09.461Z,31.63
2023-02-09T23:05:36.104Z,28.92
2023-02-09T23:08:02.796Z,28.85
2023-02-09T23:10:29.415Z,30.33
2023-02-09T23:12:56.020Z,29.58
2023-02-09T23:15:22.639Z,31.10
2023-02-09T23:17:49.260Z,31.10
2023-02-09T23:20:15.938Z,30.80
2023-02-09T23:22:42.534Z,30.73
2023-02-09T23:25:09.140Z,31.95
2023-02-09T23:27:35.753Z,30.42
2023-02-09T23:30:02.383Z,30.65
2023-02-09T23:32:29.013Z,31.40
2023-02-09T23:34:55.650Z,28.95
2023-02-09T23:37:36.791Z,30.83
2023-02-09T23:40:04.172Z,31.23
2023-02-09T23:42:30.779Z,31.48
2023-02-09T23:44:57.445Z,31.88
2023-02-09T23:47:24.057Z,32.33
2023-02-09T23:49:50.742Z,31.83
2023-02-09T23:52:17.346Z,30.08
2023-02-09T23:54:44.026Z,32.08
2023-02-09T23:57:10.653Z,31.63
2023-02-09T23:59:37.301Z,31.23
